sensor_id;sensor_type;location;lat;lon;timestamp;temperature;humidity
4249;DHT22;8404;48.752;12.922;2022-11-14T00:01:38;7.20;85.50
4249;DHT22;8404;48.752;12.922;2022-11-14T00:04:26;7.20;85.60
4249;DHT22;8404;48.752;12.922;2022-11-14T00:07:14;7.10;85.80
4249;DHT22;8404;48.752;12.922;2022-11-14T00:10:07;7.00;85.80
4249;DHT22;8404;48.752;12.922;2022-11-14T00:12:53;7.00;86.00
4249;DHT22;8404;48.752;12.922;2022-11-14T00:15:40;7.00;86.20
4249;DHT22;8404;48.752;12.922;2022-11-14T00:18:26;6.90;86.20
4249;DHT22;8404;48.752;12.922;2022-11-14T00:21:15;6.80;86.20
4249;DHT22;8404;48.752;12.922;2022-11-14T00:24:01;6.80;86.40
4249;DHT22;8404;48.752;12.922;2022-11-14T00:26:48;6.80;86.70
4249;DHT22;8404;48.752;12.922;2022-11-14T00:29:34;6.80;86.90
4249;DHT22;8404;48.752;12.922;2022-11-14T00:32:21;6.80;87.00
4249;DHT22;8404;48.752;12.922;2022-11-14T00:35:08;6.70;86.90
4249;DHT22;8404;48.752;12.922;2022-11-14T00:37:56;6.70;87.40
4249;DHT22;8404;48.752;12.922;2022-11-14T00:40:43;6.70;87.60
4249;DHT22;8404;48.752;12.922;2022-11-14T00:43:29;6.70;87.50
4249;DHT22;8404;48.752;12.922;2022-11-14T00:46:16;6.60;87.70
4249;DHT22;8404;48.752;12.922;2022-11-14T00:49:03;6.60;87.70
4249;DHT22;8404;48.752;12.922;2022-11-14T00:51:49;6.60;87.70
4249;DHT22;8404;48.752;12.922;2022-11-14T00:54:37;6.60;87.80
4249;DHT22;8404;48.752;12.922;2022-11-14T00:57:24;6.60;87.90
4249;DHT22;8404;48.752;12.922;2022-11-14T01:00:13;6.60;88.00
4249;DHT22;8404;48.752;12.922;2022-11-14T01:02:59;6.60;88.10
4249;DHT22;8404;48.752;12.922;2022-11-14T01:05:48;6.60;88.30
4249;DHT22;8404;48.752;12.922;2022-11-14T01:08:35;6.50;88.20
4249;DHT22;8404;48.752;12.922;2022-11-14T01:11:23;6.50;88.30
4249;DHT22;8404;48.752;12.922;2022-11-14T01:14:10;6.50;88.50
4249;DHT22;8404;48.752;12.922;2022-11-14T01:16:56;6.50;88.50
4249;DHT22;8404;48.752;12.922;2022-11-14T01:19:43;6.50;88.70
4249;DHT22;8404;48.752;12.922;2022-11-14T01:22:30;6.40;88.90
4249;DHT22;8404;48.752;12.922;2022-11-14T01:25:17;6.40;89.20
4249;DHT22;8404;48.752;12.922;2022-11-14T01:28:10;6.30;89.40
4249;DHT22;8404;48.752;12.922;2022-11-14T01:31:07;6.30;89.40
4249;DHT22;8404;48.752;12.922;2022-11-14T01:33:54;6.20;89.60
4249;DHT22;8404;48.752;12.922;2022-11-14T01:36:40;6.10;89.70
4249;DHT22;8404;48.752;12.922;2022-11-14T01:39:27;6.10;90.10
4249;DHT22;8404;48.752;12.922;2022-11-14T01:42:14;6.20;90.30
4249;DHT22;8404;48.752;12.922;2022-11-14T01:48:28;6.20;90.30
4249;DHT22;8404;48.752;12.922;2022-11-14T01:51:23;6.30;90.20
4249;DHT22;8404;48.752;12.922;2022-11-14T01:54:16;6.30;90.30
4249;DHT22;8404;48.752;12.922;2022-11-14T01:57:05;6.40;90.30
4249;DHT22;8404;48.752;12.922;2022-11-14T01:59:54;6.40;90.40
4249;DHT22;8404;48.752;12.922;2022-11-14T02:02:43;6.40;90.20
4249;DHT22;8404;48.752;12.922;2022-11-14T02:05:31;6.40;90.20
4249;DHT22;8404;48.752;12.922;2022-11-14T02:08:19;6.40;90.30
4249;DHT22;8404;48.752;12.922;2022-11-14T02:11:09;6.40;90.30
4249;DHT22;8404;48.752;12.922;2022-11-14T02:13:56;6.40;90.30
4249;DHT22;8404;48.752;12.922;2022-11-14T02:16:45;6.40;90.30
4249;DHT22;8404;48.752;12.922;2022-11-14T02:19:54;6.40;90.30
4249;DHT22;8404;48.752;12.922;2022-11-14T02:22:50;6.40;90.30
4249;DHT22;8404;48.752;12.922;2022-11-14T02:25:37;6.40;90.30
4249;DHT22;8404;48.752;12.922;2022-11-14T02:28:25;6.40;90.40
4249;DHT22;8404;48.752;12.922;2022-11-14T02:31:14;6.30;90.30
4249;DHT22;8404;48.752;12.922;2022-11-14T02:34:01;6.30;90.40
4249;DHT22;8404;48.752;12.922;2022-11-14T02:36:47;6.30;90.40
4249;DHT22;8404;48.752;12.922;2022-11-14T02:39:35;6.20;90.40
4249;DHT22;8404;48.752;12.922;2022-11-14T02:42:23;6.20;90.60
4249;DHT22;8404;48.752;12.922;2022-11-14T02:45:11;6.10;90.60
4249;DHT22;8404;48.752;12.922;2022-11-14T02:47:58;6.10;90.40
4249;DHT22;8404;48.752;12.922;2022-11-14T02:50:47;6.00;90.40
4249;DHT22;8404;48.752;12.922;2022-11-14T02:53:34;6.00;90.50
4249;DHT22;8404;48.752;12.922;2022-11-14T02:56:22;5.90;90.60
4249;DHT22;8404;48.752;12.922;2022-11-14T02:59:08;5.90;90.60
4249;DHT22;8404;48.752;12.922;2022-11-14T03:01:55;5.80;90.70
4249;DHT22;8404;48.752;12.922;2022-11-14T03:04:42;5.80;90.80
4249;DHT22;8404;48.752;12.922;2022-11-14T03:07:29;5.80;90.80
4249;DHT22;8404;48.752;12.922;2022-11-14T03:10:16;5.70;91.00
4249;DHT22;8404;48.752;12.922;2022-11-14T03:13:04;5.80;90.50
4249;DHT22;8404;48.752;12.922;2022-11-14T03:15:51;5.70;90.70
4249;DHT22;8404;48.752;12.922;2022-11-14T03:18:38;5.70;91.00
4249;DHT22;8404;48.752;12.922;2022-11-14T03:21:24;5.70;91.10
4249;DHT22;8404;48.752;12.922;2022-11-14T03:24:11;5.70;91.20
4249;DHT22;8404;48.752;12.922;2022-11-14T03:26:58;5.70;91.40
4249;DHT22;8404;48.752;12.922;2022-11-14T03:29:47;5.70;91.40
4249;DHT22;8404;48.752;12.922;2022-11-14T03:32:34;5.70;91.40
4249;DHT22;8404;48.752;12.922;2022-11-14T03:35:20;5.60;91.30
4249;DHT22;8404;48.752;12.922;2022-11-14T03:38:07;5.60;91.30
4249;DHT22;8404;48.752;12.922;2022-11-14T03:40:53;5.60;91.30
4249;DHT22;8404;48.752;12.922;2022-11-14T03:43:40;5.50;91.40
4249;DHT22;8404;48.752;12.922;2022-11-14T03:46:28;5.50;91.70
4249;DHT22;8404;48.752;12.922;2022-11-14T03:49:15;5.40;91.40
4249;DHT22;8404;48.752;12.922;2022-11-14T03:52:02;5.40;91.50
4249;DHT22;8404;48.752;12.922;2022-11-14T03:54:48;5.40;91.60
4249;DHT22;8404;48.752;12.922;2022-11-14T03:57:35;5.30;91.80
4249;DHT22;8404;48.752;12.922;2022-11-14T04:00:22;5.30;91.90
4249;DHT22;8404;48.752;12.922;2022-11-14T04:03:10;5.40;92.20
4249;DHT22;8404;48.752;12.922;2022-11-14T04:05:57;5.40;92.00
4249;DHT22;8404;48.752;12.922;2022-11-14T04:08:44;5.40;92.20
4249;DHT22;8404;48.752;12.922;2022-11-14T04:11:31;5.40;92.50
4249;DHT22;8404;48.752;12.922;2022-11-14T04:14:17;5.50;92.40
4249;DHT22;8404;48.752;12.922;2022-11-14T04:17:04;5.50;92.70
4249;DHT22;8404;48.752;12.922;2022-11-14T04:19:52;5.50;92.50
4249;DHT22;8404;48.752;12.922;2022-11-14T04:22:39;5.50;92.50
4249;DHT22;8404;48.752;12.922;2022-11-14T04:25:26;5.50;92.40
4249;DHT22;8404;48.752;12.922;2022-11-14T04:28:13;5.60;92.60
4249;DHT22;8404;48.752;12.922;2022-11-14T04:31:00;5.50;92.60
4249;DHT22;8404;48.752;12.922;2022-11-14T04:33:47;5.50;92.60
4249;DHT22;8404;48.752;12.922;2022-11-14T04:36:35;5.50;92.60
4249;DHT22;8404;48.752;12.922;2022-11-14T04:39:22;5.50;92.60
4249;DHT22;8404;48.752;12.922;2022-11-14T04:42:09;5.50;92.60
4249;DHT22;8404;48.752;12.922;2022-11-14T04:44:55;5.40;92.70
4249;DHT22;8404;48.752;12.922;2022-11-14T04:47:42;5.40;92.70
4249;DHT22;8404;48.752;12.922;2022-11-14T04:50:29;5.40;92.70
4249;DHT22;8404;48.752;12.922;2022-11-14T04:53:17;5.30;92.70
4249;DHT22;8404;48.752;12.922;2022-11-14T04:56:04;5.30;92.80
4249;DHT22;8404;48.752;12.922;2022-11-14T04:58:51;5.30;93.00
4249;DHT22;8404;48.752;12.922;2022-11-14T05:01:37;5.30;92.90
4249;DHT22;8404;48.752;12.922;2022-11-14T05:04:24;5.30;92.90
4249;DHT22;8404;48.752;12.922;2022-11-14T05:07:11;5.30;92.80
4249;DHT22;8404;48.752;12.922;2022-11-14T05:09:59;5.30;92.80
4249;DHT22;8404;48.752;12.922;2022-11-14T05:12:46;5.30;92.80
4249;DHT22;8404;48.752;12.922;2022-11-14T05:15:33;5.20;92.90
4249;DHT22;8404;48.752;12.922;2022-11-14T05:18:20;5.20;93.10
4249;DHT22;8404;48.752;12.922;2022-11-14T05:21:09;5.20;93.10
4249;DHT22;8404;48.752;12.922;2022-11-14T05:23:56;5.20;93.30
4249;DHT22;8404;48.752;12.922;2022-11-14T05:26:44;5.20;93.30
4249;DHT22;8404;48.752;12.922;2022-11-14T05:29:30;5.20;93.40
4249;DHT22;8404;48.752;12.922;2022-11-14T05:32:17;5.20;93.40
4249;DHT22;8404;48.752;12.922;2022-11-14T05:35:05;5.20;93.40
4249;DHT22;8404;48.752;12.922;2022-11-14T05:37:52;5.20;93.40
4249;DHT22;8404;48.752;12.922;2022-11-14T05:40:44;5.20;93.40
4249;DHT22;8404;48.752;12.922;2022-11-14T05:43:32;5.20;93.40
4249;DHT22;8404;48.752;12.922;2022-11-14T05:46:19;5.10;93.30
4249;DHT22;8404;48.752;12.922;2022-11-14T05:49:05;5.10;93.40
4249;DHT22;8404;48.752;12.922;2022-11-14T05:51:52;5.00;93.40
4249;DHT22;8404;48.752;12.922;2022-11-14T05:54:38;5.10;93.60
4249;DHT22;8404;48.752;12.922;2022-11-14T05:57:25;5.00;93.70
4249;DHT22;8404;48.752;12.922;2022-11-14T06:00:14;5.00;93.80
4249;DHT22;8404;48.752;12.922;2022-11-14T06:03:02;5.10;94.00
4249;DHT22;8404;48.752;12.922;2022-11-14T06:05:49;5.10;94.00
4249;DHT22;8404;48.752;12.922;2022-11-14T06:08:36;5.10;94.10
4249;DHT22;8404;48.752;12.922;2022-11-14T06:11:23;5.10;94.20
4249;DHT22;8404;48.752;12.922;2022-11-14T06:14:10;5.10;94.20
4249;DHT22;8404;48.752;12.922;2022-11-14T06:16:57;5.10;94.10
4249;DHT22;8404;48.752;12.922;2022-11-14T06:19:44;5.10;94.10
4249;DHT22;8404;48.752;12.922;2022-11-14T06:22:31;5.10;94.10
4249;DHT22;8404;48.752;12.922;2022-11-14T06:25:20;5.10;94.10
4249;DHT22;8404;48.752;12.922;2022-11-14T06:28:06;5.10;94.10
4249;DHT22;8404;48.752;12.922;2022-11-14T06:30:56;5.10;94.10
4249;DHT22;8404;48.752;12.922;2022-11-14T06:33:45;5.00;94.10
4249;DHT22;8404;48.752;12.922;2022-11-14T06:36:31;5.00;94.20
4249;DHT22;8404;48.752;12.922;2022-11-14T06:39:18;5.10;94.30
4249;DHT22;8404;48.752;12.922;2022-11-14T06:42:05;5.10;94.30
4249;DHT22;8404;48.752;12.922;2022-11-14T06:44:52;5.10;94.30
4249;DHT22;8404;48.752;12.922;2022-11-14T06:47:38;5.10;94.30
4249;DHT22;8404;48.752;12.922;2022-11-14T06:50:27;5.20;94.30
4249;DHT22;8404;48.752;12.922;2022-11-14T06:53:14;5.20;94.50
4249;DHT22;8404;48.752;12.922;2022-11-14T06:56:02;5.30;94.50
4249;DHT22;8404;48.752;12.922;2022-11-14T06:58:49;5.30;94.40
4249;DHT22;8404;48.752;12.922;2022-11-14T07:01:36;5.30;94.30
4249;DHT22;8404;48.752;12.922;2022-11-14T07:04:23;5.40;94.60
4249;DHT22;8404;48.752;12.922;2022-11-14T07:07:11;5.40;94.50
4249;DHT22;8404;48.752;12.922;2022-11-14T07:09:58;5.40;94.50
4249;DHT22;8404;48.752;12.922;2022-11-14T07:12:45;5.40;94.50
4249;DHT22;8404;48.752;12.922;2022-11-14T07:15:33;5.50;94.60
4249;DHT22;8404;48.752;12.922;2022-11-14T07:18:20;5.60;94.60
4249;DHT22;8404;48.752;12.922;2022-11-14T07:21:07;5.60;94.60
4249;DHT22;8404;48.752;12.922;2022-11-14T07:23:55;5.70;94.70
4249;DHT22;8404;48.752;12.922;2022-11-14T07:26:43;5.70;94.70
4249;DHT22;8404;48.752;12.922;2022-11-14T07:29:31;5.80;94.70
4249;DHT22;8404;48.752;12.922;2022-11-14T07:32:18;5.90;94.80
4249;DHT22;8404;48.752;12.922;2022-11-14T07:35:05;6.00;94.70
4249;DHT22;8404;48.752;12.922;2022-11-14T07:37:52;6.10;94.80
4249;DHT22;8404;48.752;12.922;2022-11-14T07:40:40;6.10;94.80
4249;DHT22;8404;48.752;12.922;2022-11-14T07:43:27;6.20;94.80
4249;DHT22;8404;48.752;12.922;2022-11-14T07:46:16;6.30;94.80
4249;DHT22;8404;48.752;12.922;2022-11-14T07:49:03;6.40;94.90
4249;DHT22;8404;48.752;12.922;2022-11-14T07:51:49;6.40;94.90
4249;DHT22;8404;48.752;12.922;2022-11-14T07:54:36;6.50;95.20
4249;DHT22;8404;48.752;12.922;2022-11-14T07:57:25;6.60;95.10
4249;DHT22;8404;48.752;12.922;2022-11-14T08:00:13;6.70;95.10
4249;DHT22;8404;48.752;12.922;2022-11-14T08:03:02;6.70;95.10
4249;DHT22;8404;48.752;12.922;2022-11-14T08:05:48;6.90;95.20
4249;DHT22;8404;48.752;12.922;2022-11-14T08:08:35;6.90;95.40
4249;DHT22;8404;48.752;12.922;2022-11-14T08:11:22;7.10;95.40
4249;DHT22;8404;48.752;12.922;2022-11-14T08:14:24;7.20;95.50
4249;DHT22;8404;48.752;12.922;2022-11-14T08:17:11;7.30;95.30
4249;DHT22;8404;48.752;12.922;2022-11-14T08:19:57;7.50;95.30
4249;DHT22;8404;48.752;12.922;2022-11-14T08:22:44;7.60;95.20
4249;DHT22;8404;48.752;12.922;2022-11-14T08:25:30;7.70;95.10
4249;DHT22;8404;48.752;12.922;2022-11-14T08:28:17;7.80;95.00
4249;DHT22;8404;48.752;12.922;2022-11-14T08:31:05;7.90;94.90
4249;DHT22;8404;48.752;12.922;2022-11-14T08:33:52;8.00;95.00
4249;DHT22;8404;48.752;12.922;2022-11-14T08:36:39;8.00;95.00
4249;DHT22;8404;48.752;12.922;2022-11-14T08:39:25;8.20;95.00
4249;DHT22;8404;48.752;12.922;2022-11-14T08:42:12;8.30;94.90
4249;DHT22;8404;48.752;12.922;2022-11-14T08:44:58;8.40;94.90
4249;DHT22;8404;48.752;12.922;2022-11-14T08:47:51;8.50;95.00
4249;DHT22;8404;48.752;12.922;2022-11-14T08:50:38;8.60;94.90
4249;DHT22;8404;48.752;12.922;2022-11-14T08:53:25;8.70;94.90
4249;DHT22;8404;48.752;12.922;2022-11-14T08:56:12;8.90;94.80
4249;DHT22;8404;48.752;12.922;2022-11-14T08:58:58;9.00;94.70
4249;DHT22;8404;48.752;12.922;2022-11-14T09:01:46;9.10;94.70
4249;DHT22;8404;48.752;12.922;2022-11-14T09:04:33;9.30;94.50
4249;DHT22;8404;48.752;12.922;2022-11-14T09:07:21;9.40;94.50
4249;DHT22;8404;48.752;12.922;2022-11-14T09:10:08;9.50;94.30
4249;DHT22;8404;48.752;12.922;2022-11-14T09:12:55;9.60;94.20
4249;DHT22;8404;48.752;12.922;2022-11-14T09:15:49;9.70;94.10
4249;DHT22;8404;48.752;12.922;2022-11-14T09:18:36;9.80;94.10
4249;DHT22;8404;48.752;12.922;2022-11-14T09:21:24;9.90;94.10
4249;DHT22;8404;48.752;12.922;2022-11-14T09:24:11;10.00;94.10
4249;DHT22;8404;48.752;12.922;2022-11-14T09:26:57;10.20;94.00
4249;DHT22;8404;48.752;12.922;2022-11-14T09:29:44;10.30;93.80
4249;DHT22;8404;48.752;12.922;2022-11-14T09:32:31;10.40;93.70
4249;DHT22;8404;48.752;12.922;2022-11-14T09:35:18;10.50;93.20
4249;DHT22;8404;48.752;12.922;2022-11-14T09:38:08;10.60;93.20
4249;DHT22;8404;48.752;12.922;2022-11-14T09:41:03;10.70;93.10
4249;DHT22;8404;48.752;12.922;2022-11-14T09:47:38;10.80;92.90
4249;DHT22;8404;48.752;12.922;2022-11-14T09:50:29;11.00;92.90
4249;DHT22;8404;48.752;12.922;2022-11-14T09:53:26;11.10;92.60
4249;DHT22;8404;48.752;12.922;2022-11-14T09:56:19;11.20;92.80
4249;DHT22;8404;48.752;12.922;2022-11-14T09:59:08;11.30;92.70
4249;DHT22;8404;48.752;12.922;2022-11-14T10:01:58;11.40;92.70
4249;DHT22;8404;48.752;12.922;2022-11-14T10:04:53;11.50;92.40
4249;DHT22;8404;48.752;12.922;2022-11-14T10:07:59;11.60;92.30
4249;DHT22;8404;48.752;12.922;2022-11-14T10:10:53;11.70;92.50
4249;DHT22;8404;48.752;12.922;2022-11-14T10:13:56;11.80;91.90
4249;DHT22;8404;48.752;12.922;2022-11-14T10:16:56;11.90;91.90
4249;DHT22;8404;48.752;12.922;2022-11-14T10:19:59;12.00;91.80
4249;DHT22;8404;48.752;12.922;2022-11-14T10:23:17;12.10;91.50
4249;DHT22;8404;48.752;12.922;2022-11-14T10:26:14;12.10;91.30
4249;DHT22;8404;48.752;12.922;2022-11-14T10:32:39;12.20;91.00
4249;DHT22;8404;48.752;12.922;2022-11-14T10:35:34;12.30;91.00
4249;DHT22;8404;48.752;12.922;2022-11-14T10:38:26;12.30;90.90
4249;DHT22;8404;48.752;12.922;2022-11-14T10:41:18;12.50;90.90
4249;DHT22;8404;48.752;12.922;2022-11-14T10:44:31;12.70;90.70
4249;DHT22;8404;48.752;12.922;2022-11-14T10:47:20;12.90;90.60
4249;DHT22;8404;48.752;12.922;2022-11-14T10:50:17;13.00;90.30
4249;DHT22;8404;48.752;12.922;2022-11-14T10:53:15;13.10;90.10
4249;DHT22;8404;48.752;12.922;2022-11-14T10:56:07;13.20;89.30
4249;DHT22;8404;48.752;12.922;2022-11-14T10:58:56;13.40;86.40
4249;DHT22;8404;48.752;12.922;2022-11-14T11:01:45;13.60;86.40
4249;DHT22;8404;48.752;12.922;2022-11-14T11:04:39;13.70;84.30
4249;DHT22;8404;48.752;12.922;2022-11-14T11:07:26;14.00;84.90
4249;DHT22;8404;48.752;12.922;2022-11-14T11:10:41;14.10;83.90
4249;DHT22;8404;48.752;12.922;2022-11-14T11:13:53;14.10;82.90
4249;DHT22;8404;48.752;12.922;2022-11-14T11:16:42;14.10;81.60
4249;DHT22;8404;48.752;12.922;2022-11-14T11:19:28;14.10;82.40
4249;DHT22;8404;48.752;12.922;2022-11-14T11:22:24;14.10;82.90
4249;DHT22;8404;48.752;12.922;2022-11-14T11:25:22;14.10;82.90
4249;DHT22;8404;48.752;12.922;2022-11-14T11:28:12;14.10;81.60
4249;DHT22;8404;48.752;12.922;2022-11-14T11:31:01;14.30;81.50
4249;DHT22;8404;48.752;12.922;2022-11-14T11:33:48;14.40;81.80
4249;DHT22;8404;48.752;12.922;2022-11-14T11:36:39;14.50;81.90
4249;DHT22;8404;48.752;12.922;2022-11-14T11:39:28;14.60;81.10
4249;DHT22;8404;48.752;12.922;2022-11-14T11:42:18;14.70;81.40
4249;DHT22;8404;48.752;12.922;2022-11-14T11:45:11;14.90;81.40
4249;DHT22;8404;48.752;12.922;2022-11-14T11:48:08;14.90;81.10
4249;DHT22;8404;48.752;12.922;2022-11-14T11:51:00;15.00;80.80
4249;DHT22;8404;48.752;12.922;2022-11-14T11:53:55;15.00;79.80
4249;DHT22;8404;48.752;12.922;2022-11-14T11:56:43;15.00;80.30
4249;DHT22;8404;48.752;12.922;2022-11-14T11:59:35;15.10;79.80
4249;DHT22;8404;48.752;12.922;2022-11-14T12:02:25;15.20;79.50
4249;DHT22;8404;48.752;12.922;2022-11-14T12:05:14;15.30;78.80
4249;DHT22;8404;48.752;12.922;2022-11-14T12:08:04;15.40;78.80
4249;DHT22;8404;48.752;12.922;2022-11-14T12:10:55;15.50;79.20
4249;DHT22;8404;48.752;12.922;2022-11-14T12:14:02;15.50;78.60
4249;DHT22;8404;48.752;12.922;2022-11-14T12:20:42;15.50;78.70
4249;DHT22;8404;48.752;12.922;2022-11-14T12:24:16;15.50;78.40
4249;DHT22;8404;48.752;12.922;2022-11-14T12:27:21;15.60;77.90
4249;DHT22;8404;48.752;12.922;2022-11-14T12:30:12;15.60;78.50
4249;DHT22;8404;48.752;12.922;2022-11-14T12:33:02;15.70;78.70
4249;DHT22;8404;48.752;12.922;2022-11-14T12:35:55;15.80;77.80
4249;DHT22;8404;48.752;12.922;2022-11-14T12:38:45;15.80;75.80
4249;DHT22;8404;48.752;12.922;2022-11-14T12:41:36;15.90;76.20
4249;DHT22;8404;48.752;12.922;2022-11-14T12:44:34;15.90;76.50
4249;DHT22;8404;48.752;12.922;2022-11-14T12:47:23;15.90;76.20
4249;DHT22;8404;48.752;12.922;2022-11-14T12:50:38;15.80;75.60
4249;DHT22;8404;48.752;12.922;2022-11-14T12:53:43;15.80;75.30
4249;DHT22;8404;48.752;12.922;2022-11-14T12:56:54;15.70;75.80
4249;DHT22;8404;48.752;12.922;2022-11-14T12:59:48;15.70;75.00
4249;DHT22;8404;48.752;12.922;2022-11-14T13:03:02;15.70;76.40
4249;DHT22;8404;48.752;12.922;2022-11-14T13:05:56;15.80;76.30
4249;DHT22;8404;48.752;12.922;2022-11-14T13:09:14;15.80;75.30
4249;DHT22;8404;48.752;12.922;2022-11-14T13:12:25;15.80;75.80
4249;DHT22;8404;48.752;12.922;2022-11-14T13:15:31;15.80;76.00
4249;DHT22;8404;48.752;12.922;2022-11-14T13:18:49;15.90;76.20
4249;DHT22;8404;48.752;12.922;2022-11-14T13:22:35;15.90;76.30
4249;DHT22;8404;48.752;12.922;2022-11-14T13:25:23;16.00;76.70
4249;DHT22;8404;48.752;12.922;2022-11-14T13:28:46;16.10;76.60
4249;DHT22;8404;48.752;12.922;2022-11-14T13:31:49;16.20;76.20
4249;DHT22;8404;48.752;12.922;2022-11-14T13:34:42;16.20;75.90
4249;DHT22;8404;48.752;12.922;2022-11-14T13:37:58;16.30;76.20
4249;DHT22;8404;48.752;12.922;2022-11-14T13:40:53;16.40;76.10
4249;DHT22;8404;48.752;12.922;2022-11-14T13:43:54;16.50;75.90
4249;DHT22;8404;48.752;12.922;2022-11-14T13:46:57;16.60;75.90
4249;DHT22;8404;48.752;12.922;2022-11-14T13:49:55;16.80;75.70
4249;DHT22;8404;48.752;12.922;2022-11-14T13:52:45;16.90;74.80
4249;DHT22;8404;48.752;12.922;2022-11-14T13:55:38;16.90;74.10
4249;DHT22;8404;48.752;12.922;2022-11-14T13:58:48;16.90;74.10
4249;DHT22;8404;48.752;12.922;2022-11-14T14:01:50;16.90;74.00
4249;DHT22;8404;48.752;12.922;2022-11-14T14:04:53;17.00;73.80
4249;DHT22;8404;48.752;12.922;2022-11-14T14:07:54;17.10;72.30
4249;DHT22;8404;48.752;12.922;2022-11-14T14:10:51;17.30;72.90
4249;DHT22;8404;48.752;12.922;2022-11-14T14:13:52;17.40;71.80
4249;DHT22;8404;48.752;12.922;2022-11-14T14:16:50;17.40;69.20
4249;DHT22;8404;48.752;12.922;2022-11-14T14:19:51;17.40;69.60
4249;DHT22;8404;48.752;12.922;2022-11-14T14:22:49;17.40;69.00
4249;DHT22;8404;48.752;12.922;2022-11-14T14:25:44;17.30;67.50
4249;DHT22;8404;48.752;12.922;2022-11-14T14:28:41;17.20;68.00
4249;DHT22;8404;48.752;12.922;2022-11-14T14:31:36;17.20;67.50
4249;DHT22;8404;48.752;12.922;2022-11-14T14:34:27;17.20;67.70
4249;DHT22;8404;48.752;12.922;2022-11-14T14:37:19;17.20;67.40
4249;DHT22;8404;48.752;12.922;2022-11-14T14:40:20;17.30;66.80
4249;DHT22;8404;48.752;12.922;2022-11-14T14:43:19;17.40;66.80
4249;DHT22;8404;48.752;12.922;2022-11-14T14:46:08;17.40;66.40
4249;DHT22;8404;48.752;12.922;2022-11-14T14:48:56;17.40;65.60
4249;DHT22;8404;48.752;12.922;2022-11-14T14:51:45;17.40;65.50
4249;DHT22;8404;48.752;12.922;2022-11-14T14:54:31;17.20;66.30
4249;DHT22;8404;48.752;12.922;2022-11-14T14:57:18;17.10;64.80
4249;DHT22;8404;48.752;12.922;2022-11-14T15:00:17;17.00;64.30
4249;DHT22;8404;48.752;12.922;2022-11-14T15:03:04;16.80;64.50
4249;DHT22;8404;48.752;12.922;2022-11-14T15:05:57;16.50;65.80
4249;DHT22;8404;48.752;12.922;2022-11-14T15:08:46;16.00;66.70
4249;DHT22;8404;48.752;12.922;2022-11-14T15:11:33;15.60;68.10
4249;DHT22;8404;48.752;12.922;2022-11-14T15:14:21;15.10;69.70
4249;DHT22;8404;48.752;12.922;2022-11-14T15:17:09;14.80;70.50
4249;DHT22;8404;48.752;12.922;2022-11-14T15:19:56;14.50;71.30
4249;DHT22;8404;48.752;12.922;2022-11-14T15:23:01;14.30;72.00
4249;DHT22;8404;48.752;12.922;2022-11-14T15:26:00;14.10;72.50
4249;DHT22;8404;48.752;12.922;2022-11-14T15:28:47;13.80;73.60
4249;DHT22;8404;48.752;12.922;2022-11-14T15:31:35;13.70;74.30
4249;DHT22;8404;48.752;12.922;2022-11-14T15:34:27;13.60;74.10
4249;DHT22;8404;48.752;12.922;2022-11-14T15:37:20;13.50;74.10
4249;DHT22;8404;48.752;12.922;2022-11-14T15:40:15;13.30;74.60
4249;DHT22;8404;48.752;12.922;2022-11-14T15:43:36;13.10;75.60
4249;DHT22;8404;48.752;12.922;2022-11-14T15:46:47;12.90;76.30
4249;DHT22;8404;48.752;12.922;2022-11-14T15:49:34;12.80;77.10
4249;DHT22;8404;48.752;12.922;2022-11-14T15:52:24;12.70;77.30
4249;DHT22;8404;48.752;12.922;2022-11-14T15:55:14;12.50;78.60
4249;DHT22;8404;48.752;12.922;2022-11-14T15:58:01;12.50;78.90
4249;DHT22;8404;48.752;12.922;2022-11-14T16:01:14;12.50;79.10
4249;DHT22;8404;48.752;12.922;2022-11-14T16:04:02;12.40;79.30
4249;DHT22;8404;48.752;12.922;2022-11-14T16:06:49;12.30;79.80
4249;DHT22;8404;48.752;12.922;2022-11-14T16:09:36;12.20;80.10
4249;DHT22;8404;48.752;12.922;2022-11-14T16:12:22;12.00;81.20
4249;DHT22;8404;48.752;12.922;2022-11-14T16:15:09;11.90;81.00
4249;DHT22;8404;48.752;12.922;2022-11-14T16:17:57;11.80;82.80
4249;DHT22;8404;48.752;12.922;2022-11-14T16:20:44;11.70;83.30
4249;DHT22;8404;48.752;12.922;2022-11-14T16:23:30;11.70;82.90
4249;DHT22;8404;48.752;12.922;2022-11-14T16:26:17;11.70;83.20
4249;DHT22;8404;48.752;12.922;2022-11-14T16:29:04;11.60;83.20
4249;DHT22;8404;48.752;12.922;2022-11-14T16:31:52;11.60;83.20
4249;DHT22;8404;48.752;12.922;2022-11-14T16:34:41;11.50;83.30
4249;DHT22;8404;48.752;12.922;2022-11-14T16:37:27;11.50;83.40
4249;DHT22;8404;48.752;12.922;2022-11-14T16:40:16;11.40;83.50
4249;DHT22;8404;48.752;12.922;2022-11-14T16:43:03;11.20;83.70
4249;DHT22;8404;48.752;12.922;2022-11-14T16:45:50;11.20;83.30
4249;DHT22;8404;48.752;12.922;2022-11-14T16:48:36;11.10;83.30
4249;DHT22;8404;48.752;12.922;2022-11-14T16:51:24;11.10;83.80
4249;DHT22;8404;48.752;12.922;2022-11-14T16:54:31;11.00;84.10
4249;DHT22;8404;48.752;12.922;2022-11-14T16:57:18;11.00;84.30
4249;DHT22;8404;48.752;12.922;2022-11-14T17:00:07;10.90;85.30
4249;DHT22;8404;48.752;12.922;2022-11-14T17:02:54;10.70;86.40
4249;DHT22;8404;48.752;12.922;2022-11-14T17:08:30;10.60;85.30
4249;DHT22;8404;48.752;12.922;2022-11-14T17:11:17;10.60;85.80
4249;DHT22;8404;48.752;12.922;2022-11-14T17:14:04;10.50;86.00
4249;DHT22;8404;48.752;12.922;2022-11-14T17:16:51;10.40;86.80
4249;DHT22;8404;48.752;12.922;2022-11-14T17:19:38;10.40;86.50
4249;DHT22;8404;48.752;12.922;2022-11-14T17:22:30;10.30;86.60
4249;DHT22;8404;48.752;12.922;2022-11-14T17:25:18;10.20;86.90
4249;DHT22;8404;48.752;12.922;2022-11-14T17:28:04;10.20;87.00
4249;DHT22;8404;48.752;12.922;2022-11-14T17:30:51;10.00;87.00
4249;DHT22;8404;48.752;12.922;2022-11-14T17:33:37;9.90;87.30
4249;DHT22;8404;48.752;12.922;2022-11-14T17:36:26;9.80;87.50
4249;DHT22;8404;48.752;12.922;2022-11-14T17:39:13;9.70;88.00
4249;DHT22;8404;48.752;12.922;2022-11-14T17:42:02;9.70;88.30
4249;DHT22;8404;48.752;12.922;2022-11-14T17:44:49;9.70;88.50
4249;DHT22;8404;48.752;12.922;2022-11-14T17:47:36;9.70;88.40
4249;DHT22;8404;48.752;12.922;2022-11-14T17:50:23;9.70;88.80
4249;DHT22;8404;48.752;12.922;2022-11-14T17:53:09;9.60;88.80
4249;DHT22;8404;48.752;12.922;2022-11-14T17:55:56;9.60;88.80
4249;DHT22;8404;48.752;12.922;2022-11-14T17:58:44;9.50;88.70
4249;DHT22;8404;48.752;12.922;2022-11-14T18:01:31;9.40;89.10
4249;DHT22;8404;48.752;12.922;2022-11-14T18:04:18;9.30;89.10
4249;DHT22;8404;48.752;12.922;2022-11-14T18:07:05;9.20;89.60
4249;DHT22;8404;48.752;12.922;2022-11-14T18:09:52;9.10;89.90
4249;DHT22;8404;48.752;12.922;2022-11-14T18:12:39;9.00;90.10
4249;DHT22;8404;48.752;12.922;2022-11-14T18:15:27;9.00;90.10
4249;DHT22;8404;48.752;12.922;2022-11-14T18:18:14;9.00;90.20
4249;DHT22;8404;48.752;12.922;2022-11-14T18:21:07;8.90;90.40
4249;DHT22;8404;48.752;12.922;2022-11-14T18:23:55;8.90;90.50
4249;DHT22;8404;48.752;12.922;2022-11-14T18:26:42;8.80;90.80
4249;DHT22;8404;48.752;12.922;2022-11-14T18:29:28;8.80;90.90
4249;DHT22;8404;48.752;12.922;2022-11-14T18:32:16;8.70;91.10
4249;DHT22;8404;48.752;12.922;2022-11-14T18:35:04;8.70;91.20
4249;DHT22;8404;48.752;12.922;2022-11-14T18:37:51;8.70;91.20
4249;DHT22;8404;48.752;12.922;2022-11-14T18:40:42;8.60;91.20
4249;DHT22;8404;48.752;12.922;2022-11-14T18:43:29;8.60;91.20